createdAt,value
2019-04-24T00:01:17.706Z,15.50
2019-04-24T00:06:06.348Z,15.50
2019-04-24T00:10:02.123Z,15.40
2019-04-24T00:14:15.244Z,15.30
2019-04-24T00:22:23.189Z,15.30
2019-04-24T00:26:25.830Z,15.30
2019-04-24T00:30:44.985Z,15.30
2019-04-24T00:39:04.498Z,15.20
2019-04-24T00:43:09.120Z,15.20
2019-04-24T00:51:26.267Z,15.10
2019-04-24T00:55:13.870Z,15.10
2019-04-24T01:03:49.973Z,15.00
2019-04-24T01:08:06.633Z,15.00
2019-04-24T01:12:15.475Z,15.00
2019-04-24T01:24:33.538Z,14.90
2019-04-24T01:28:40.014Z,14.90
2019-04-24T01:32:43.356Z,14.90
2019-04-24T01:37:17.659Z,14.90
2019-04-24T01:41:20.540Z,14.90
2019-04-24T01:45:40.315Z,14.80
2019-04-24T01:53:28.211Z,14.80
2019-04-24T01:57:41.375Z,14.80
2019-04-24T02:01:35.378Z,14.80
2019-04-24T02:05:58.659Z,14.80
2019-04-24T02:14:31.501Z,14.80
2019-04-24T02:18:43.644Z,14.70
2019-04-24T02:27:04.958Z,14.70
2019-04-24T02:43:51.109Z,14.60
2019-04-24T02:48:18.647Z,14.60
2019-04-24T02:52:03.291Z,14.60
2019-04-24T02:56:16.566Z,14.60
2019-04-24T03:04:29.523Z,14.60
2019-04-24T03:13:19.297Z,14.60
2019-04-24T03:17:22.190Z,14.60
2019-04-24T03:25:54.229Z,14.50
2019-04-24T03:33:52.065Z,14.50
2019-04-24T03:45:53.974Z,14.50
2019-04-24T03:54:21.821Z,14.50
2019-04-24T03:58:32.300Z,14.50
2019-04-24T04:07:07.008Z,14.40
2019-04-24T04:11:09.433Z,14.40
2019-04-24T04:31:56.749Z,14.30
2019-04-24T04:44:44.571Z,14.20
2019-04-24T04:56:51.868Z,14.10
2019-04-24T05:01:27.749Z,14.10
2019-04-24T05:05:18.043Z,14.10
2019-04-24T05:09:40.841Z,14.20
2019-04-24T05:13:23.866Z,14.10
2019-04-24T05:17:55.804Z,14.20
2019-04-24T05:21:51.024Z,14.20
2019-04-24T05:25:59.647Z,14.20
2019-04-24T05:38:48.610Z,14.20
2019-04-24T05:46:43.180Z,14.20
2019-04-24T05:59:50.450Z,14.30
2019-04-24T06:12:37.036Z,14.60
2019-04-24T06:16:54.786Z,14.70
2019-04-24T06:21:04.166Z,14.70
2019-04-24T06:25:07.147Z,14.80
2019-04-24T06:33:31.377Z,15.00
2019-04-24T06:37:40.327Z,15.10
2019-04-24T06:45:49.304Z,15.30
2019-04-24T06:50:15.443Z,15.40
2019-04-24T06:54:11.401Z,15.50
2019-04-24T07:02:31.126Z,15.80
2019-04-24T07:15:00.403Z,16.10
2019-04-24T07:19:39.451Z,16.30
2019-04-24T07:23:38.353Z,16.50
2019-04-24T07:28:01.388Z,16.80
2019-04-24T07:32:15.566Z,17.00
2019-04-24T07:36:47.671Z,17.30
2019-04-24T07:41:01.662Z,17.50
2019-04-24T07:49:18.754Z,18.00
2019-04-24T07:57:44.788Z,18.40
2019-04-24T08:06:02.810Z,18.80
2019-04-24T08:10:33.704Z,19.10
2019-04-24T08:15:04.832Z,19.50
2019-04-24T08:18:31.254Z,19.80
2019-04-24T08:26:59.495Z,20.40
2019-04-24T08:31:39.030Z,20.70
2019-04-24T08:35:54.846Z,20.80
2019-04-24T08:40:02.496Z,21.00
2019-04-24T08:44:10.691Z,21.30
2019-04-24T08:52:45.663Z,21.90
2019-04-24T08:56:27.471Z,22.20
2019-04-24T09:00:41.681Z,22.40
2019-04-24T09:09:18.331Z,23.00
2019-04-24T09:17:18.255Z,23.50
2019-04-24T09:21:28.348Z,23.70
2019-04-24T09:26:17.347Z,24.00
2019-04-24T09:30:03.725Z,24.20
2019-04-24T09:33:53.328Z,24.40
2019-04-24T09:38:10.765Z,24.70
2019-04-24T09:50:41.580Z,25.40
2019-04-24T09:55:07.251Z,25.70
2019-04-24T09:59:15.868Z,26.00
2019-04-24T10:03:34.595Z,26.20
2019-04-24T10:20:05.703Z,27.00
2019-04-24T10:24:02.984Z,27.10
2019-04-24T10:28:38.106Z,27.20
2019-04-24T10:32:37.401Z,27.40
2019-04-24T10:36:55.922Z,27.60
2019-04-24T10:45:32.884Z,28.00
2019-04-24T10:49:55.391Z,28.00
2019-04-24T10:53:57.534Z,28.20
2019-04-24T10:58:07.197Z,28.50
2019-04-24T11:11:08.765Z,29.00
2019-04-24T11:15:33.418Z,29.20
2019-04-24T11:19:49.289Z,29.40
2019-04-24T11:24:06.510Z,29.60
2019-04-24T11:28:22.082Z,29.70
2019-04-24T11:32:38.048Z,30.00
2019-04-24T11:51:06.677Z,30.40
2019-04-24T11:54:39.936Z,30.40
2019-04-24T12:02:57.799Z,30.50
2019-04-24T12:07:09.346Z,30.60
2019-04-24T12:15:30.546Z,30.60
2019-04-24T12:28:13.843Z,30.50
2019-04-24T12:33:02.665Z,30.60
2019-04-24T12:37:06.102Z,30.70
2019-04-24T12:41:18.218Z,30.70
2019-04-24T12:49:45.715Z,30.50
2019-04-24T12:53:55.441Z,30.50
2019-04-24T13:02:29.812Z,30.60
2019-04-24T13:06:30.003Z,30.70
2019-04-24T13:11:03.957Z,30.70
2019-04-24T13:22:51.770Z,30.50
2019-04-24T13:27:26.291Z,30.50
2019-04-24T13:31:32.922Z,30.40
2019-04-24T13:35:47.550Z,30.50
2019-04-24T13:39:51.173Z,30.50
2019-04-24T13:48:14.259Z,30.70
2019-04-24T13:56:20.304Z,30.80
2019-04-24T14:00:34.070Z,30.70
2019-04-24T14:04:38.232Z,30.50
2019-04-24T14:08:56.086Z,30.30
2019-04-24T14:16:48.133Z,30.10
2019-04-24T14:21:03.071Z,30.00
2019-04-24T14:29:12.057Z,30.00
2019-04-24T14:37:33.736Z,30.20
2019-04-24T14:41:38.362Z,30.20
2019-04-24T14:46:03.886Z,30.20
2019-04-24T14:54:02.705Z,30.20
2019-04-24T15:02:17.568Z,30.20
2019-04-24T15:10:20.951Z,30.20
2019-04-24T15:14:47.595Z,30.20
2019-04-24T15:18:57.509Z,30.20
2019-04-24T15:22:56.063Z,30.10
2019-04-24T15:26:57.430Z,30.10
2019-04-24T15:30:55.023Z,29.90
2019-04-24T15:39:12.514Z,29.90
2019-04-24T15:43:20.894Z,29.90
2019-04-24T15:47:41.434Z,29.80
2019-04-24T15:51:28.592Z,29.80
2019-04-24T15:55:08.976Z,30.00
2019-04-24T15:59:36.204Z,30.30
2019-04-24T16:04:02.132Z,30.70
2019-04-24T16:07:37.767Z,31.10
2019-04-24T16:11:42.004Z,31.50
2019-04-24T16:24:47.176Z,32.20
2019-04-24T16:28:34.782Z,32.10
2019-04-24T16:41:02.463Z,31.50
2019-04-24T16:44:54.444Z,31.20
2019-04-24T16:49:04.819Z,30.90
2019-04-24T16:57:09.009Z,29.80
2019-04-24T17:05:31.367Z,28.90
2019-04-24T17:09:47.487Z,28.50
2019-04-24T17:18:01.366Z,28.00
2019-04-24T17:22:04.304Z,27.80
2019-04-24T17:34:30.565Z,27.00
2019-04-24T17:38:17.533Z,26.80
2019-04-24T17:47:03.479Z,26.40
2019-04-24T17:51:04.378Z,26.10
2019-04-24T17:55:04.635Z,26.00
2019-04-24T17:58:44.724Z,25.80
2019-04-24T18:02:49.011Z,25.60
2019-04-24T18:06:53.240Z,25.40
2019-04-24T18:10:57.544Z,25.30
2019-04-24T18:15:02.710Z,25.00
2019-04-24T18:19:07.777Z,24.90
2019-04-24T18:23:12.371Z,24.70
2019-04-24T18:27:17.999Z,24.60
2019-04-24T18:31:22.299Z,24.40
2019-04-24T18:35:26.545Z,24.30
2019-04-24T18:39:30.935Z,24.10
2019-04-24T18:43:35.155Z,24.00
2019-04-24T18:47:39.372Z,23.90
2019-04-24T18:51:43.599Z,23.70
2019-04-24T18:55:47.880Z,23.60
2019-04-24T18:59:52.131Z,23.50
2019-04-24T19:03:56.535Z,23.30
2019-04-24T19:08:01.410Z,23.20
2019-04-24T19:12:07.490Z,23.10
2019-04-24T19:16:13.097Z,23.00
2019-04-24T19:20:18.263Z,22.90
2019-04-24T19:24:22.491Z,22.80
2019-04-24T19:28:26.856Z,22.70
2019-04-24T19:32:32.334Z,22.60
2019-04-24T19:36:36.701Z,22.50
2019-04-24T19:40:42.501Z,22.50
2019-04-24T19:44:47.019Z,22.40
2019-04-24T19:48:51.741Z,22.30
2019-04-24T19:52:59.183Z,22.20
2019-04-24T19:57:14.313Z,22.10
2019-04-24T20:01:09.375Z,22.10
2019-04-24T20:05:16.788Z,22.00
2019-04-24T20:09:37.809Z,21.90
2019-04-24T20:13:42.094Z,21.90
2019-04-24T20:17:46.403Z,21.80
2019-04-24T20:21:51.780Z,21.70
2019-04-24T20:25:56.178Z,21.80
2019-04-24T20:30:01.215Z,21.70
2019-04-24T20:34:06.591Z,21.70
2019-04-24T20:38:11.595Z,21.60
2019-04-24T20:42:17.380Z,21.40
2019-04-24T20:46:22.592Z,20.90
2019-04-24T20:50:26.952Z,20.40
2019-04-24T20:54:32.403Z,19.80
2019-04-24T20:58:37.287Z,19.20
2019-04-24T21:02:43.747Z,18.80
2019-04-24T21:06:56.017Z,18.30
2019-04-24T21:11:00.314Z,17.90
2019-04-24T21:15:20.491Z,17.70
2019-04-24T21:19:25.072Z,17.50
2019-04-24T21:23:30.069Z,17.30
2019-04-24T21:27:34.319Z,17.00
2019-04-24T21:31:38.528Z,16.70
2019-04-24T21:35:42.756Z,16.40
2019-04-24T21:39:47.051Z,16.10
2019-04-24T21:43:52.086Z,15.80
2019-04-24T21:47:56.507Z,15.50
2019-04-24T21:52:00.732Z,15.20
2019-04-24T21:56:04.943Z,15.10
2019-04-24T22:00:25.535Z,14.90
2019-04-24T22:04:38.599Z,14.80
2019-04-24T22:08:42.962Z,14.70
2019-04-24T22:12:47.151Z,14.50
2019-04-24T22:16:51.376Z,14.40
2019-04-24T22:20:57.223Z,14.30
2019-04-24T22:25:36.330Z,14.20
2019-04-24T22:29:40.670Z,14.10
2019-04-24T22:33:53.048Z,14.10
2019-04-24T22:37:57.271Z,14.00
2019-04-24T22:42:01.575Z,14.00
2019-04-24T22:46:05.863Z,14.10
2019-04-24T22:50:10.087Z,14.00
2019-04-24T22:54:14.311Z,14.00
2019-04-24T22:58:18.502Z,14.00
2019-04-24T23:02:22.784Z,14.00
2019-04-24T23:06:27.007Z,14.00
2019-04-24T23:10:37.344Z,14.00
2019-04-24T23:14:38.963Z,14.00
2019-04-24T23:18:43.209Z,14.00
2019-04-24T23:23:05.511Z,14.00
2019-04-24T23:27:34.705Z,14.00
2019-04-24T23:31:57.971Z,14.00
2019-04-24T23:36:02.664Z,14.00
2019-04-24T23:40:08.623Z,14.00
2019-04-24T23:44:12.811Z,13.90
2019-04-24T23:48:17.103Z,13.90
2019-04-24T23:52:21.318Z,13.80
2019-04-24T23:56:25.531Z,13.80
